Time;durP1;ratioP1;P1;durP2;ratioP2;P2;SDS_P1;SDS_P2;PMS_P1;PMS_P2;Temp;Humidity;BMP_temperature;BMP_pressure;BME280_temperature;BME280_humidity;BME280_pressure;Samples;Min_cycle;Max_cycle;Signal;HPM_P1;HPM_P2
2023/10/30 00:03:53;;;;;;;2.88;0.88;;;;;;;9.52;100.00;99571.84;10420433;28;20038;-74
2023/10/30 00:08:54;;;;;;;5.28;1.40;;;;;;;9.54;100.00;99590.81;10383357;28;20091;-75
2023/10/30 00:13:54;;;;;;;2.97;0.95;;;;;;;9.46;100.00;99601.25;10419871;28;20048;-75
2023/10/30 00:18:56;;;;;;;10.75;1.83;;;;;;;9.39;100.00;99610.91;10418345;28;20033;-73
2023/10/30 00:23:57;;;;;;;4.97;1.08;;;;;;;9.34;100.00;99606.22;10416561;28;20144;-77
2023/10/30 00:28:58;;;;;;;4.20;0.85;;;;;;;9.20;100.00;99616.13;10417178;28;20099;-75
2023/10/30 00:33:58;;;;;;;5.35;0.95;;;;;;;9.14;100.00;99615.31;10390135;28;20048;-74
2023/10/30 00:38:59;;;;;;;7.50;1.58;;;;;;;9.08;100.00;99636.44;10413572;28;20048;-75
2023/10/30 00:43:59;;;;;;;2.47;1.00;;;;;;;8.96;100.00;99630.41;10410765;28;20041;-75
2023/10/30 00:49:00;;;;;;;7.85;2.28;;;;;;;8.96;100.00;99643.31;10404659;28;20044;-75
2023/10/30 00:54:01;;;;;;;6.30;1.55;;;;;;;8.92;100.00;99644.97;10425869;28;20046;-73
2023/10/30 00:59:01;;;;;;;5.50;0.90;;;;;;;8.83;100.00;99641.94;10401261;28;20052;-73
2023/10/30 01:04:02;;;;;;;4.15;1.30;;;;;;;8.88;100.00;99651.00;10417626;28;20044;-76
2023/10/30 01:09:02;;;;;;;9.27;1.60;;;;;;;8.90;100.00;99658.94;10379187;28;20026;-73
2023/10/30 01:14:03;;;;;;;3.03;1.23;;;;;;;8.91;100.00;99643.31;10417070;28;20079;-73
2023/10/30 01:19:03;;;;;;;7.75;1.27;;;;;;;8.92;100.00;99667.75;10411127;28;20536;-75
2023/10/30 01:24:05;;;;;;;2.95;1.05;;;;;;;8.82;100.00;99676.78;10416641;28;20042;-76
2023/10/30 01:29:05;;;;;;;3.08;1.20;;;;;;;8.77;100.00;99667.72;10395923;28;20084;-74
2023/10/30 01:34:06;;;;;;;5.75;1.10;;;;;;;8.71;100.00;99671.56;10414413;28;20087;-77
2023/10/30 01:39:06;;;;;;;6.22;1.15;;;;;;;8.72;100.00;99664.97;10412172;28;20037;-78
2023/10/30 01:44:07;;;;;;;6.57;1.40;;;;;;;8.77;100.00;99665.00;10395504;28;20037;-75
2023/10/30 01:49:07;;;;;;;3.90;1.27;;;;;;;8.80;100.00;99665.25;10398140;28;20042;-71
2023/10/30 01:54:08;;;;;;;3.15;1.10;;;;;;;8.74;100.00;99668.25;10415134;28;21131;-76
2023/10/30 01:59:08;;;;;;;3.47;1.27;;;;;;;8.74;100.00;99662.78;10398454;28;20033;-75
2023/10/30 02:04:09;;;;;;;3.63;0.98;;;;;;;8.78;100.00;99689.38;10394258;28;20585;-74
2023/10/30 02:09:10;;;;;;;4.57;1.33;;;;;;;8.81;100.00;99679.81;10411182;28;20060;-74
2023/10/30 02:14:11;;;;;;;12.10;3.30;;;;;;;8.82;100.00;99697.91;10415312;28;20048;-75
2023/10/30 02:19:14;;;;;;;5.13;1.20;;;;;;;8.77;100.00;99692.44;10415868;28;20407;-75
2023/10/30 02:24:15;;;;;;;3.88;0.80;;;;;;;8.74;100.00;99681.97;10414359;28;20064;-75
2023/10/30 02:29:15;;;;;;;4.30;1.13;;;;;;;8.81;100.00;99704.50;10415073;28;20040;-75
2023/10/30 02:34:18;;;;;;;6.47;1.23;;;;;;;8.80;100.00;99716.56;10404867;28;20041;-76
2023/10/30 02:39:19;;;;;;;10.45;2.00;;;;;;;8.73;100.00;99713.28;10414716;28;20042;-75
2023/10/30 02:44:19;;;;;;;8.10;1.80;;;;;;;8.62;100.00;99702.28;10414450;28;20071;-74
2023/10/30 02:49:19;;;;;;;11.30;1.98;;;;;;;8.62;100.00;99724.22;10380445;28;20048;-74
2023/10/30 02:54:20;;;;;;;8.38;1.75;;;;;;;8.64;100.00;99707.47;10419336;28;20057;-74
2023/10/30 02:59:20;;;;;;;9.88;1.63;;;;;;;8.62;100.00;99707.75;10423675;28;20046;-74
2023/10/30 03:04:22;;;;;;;6.80;1.40;;;;;;;8.62;100.00;99718.72;10421689;28;20037;-74
2023/10/30 03:09:22;;;;;;;4.93;1.80;;;;;;;8.66;100.00;99714.34;10422359;28;20034;-75
2023/10/30 03:14:23;;;;;;;6.60;1.63;;;;;;;8.64;100.00;99723.94;10422104;28;20029;-73
2023/10/30 03:19:24;;;;;;;9.15;1.80;;;;;;;8.62;100.00;99726.97;10422741;28;20052;-74
2023/10/30 03:24:24;;;;;;;5.75;2.22;;;;;;;8.53;100.00;99711.28;10422641;28;20671;-74
2023/10/30 03:29:25;;;;;;;8.73;1.65;;;;;;;8.65;100.00;99737.38;10420600;28;20041;-74
2023/10/30 03:34:25;;;;;;;7.40;1.58;;;;;;;8.67;100.00;99748.91;10420892;28;20041;-74
2023/10/30 03:39:26;;;;;;;7.57;1.33;;;;;;;8.61;100.00;99733.53;10421103;28;20064;-75
2023/10/30 03:44:27;;;;;;;13.13;2.60;;;;;;;8.74;100.00;99747.84;10421492;28;20064;-73
2023/10/30 03:49:29;;;;;;;7.30;2.05;;;;;;;8.73;100.00;99735.22;10419485;28;20061;-75
2023/10/30 03:54:29;;;;;;;5.95;1.50;;;;;;;8.75;100.00;99744.84;10419715;28;20116;-72
2023/10/30 03:59:30;;;;;;;7.95;3.05;;;;;;;8.69;100.00;99733.00;10420142;28;20042;-74
2023/10/30 04:04:30;;;;;;;7.40;1.25;;;;;;;8.79;100.00;99751.44;10434094;28;20088;-74
2023/10/30 04:09:32;;;;;;;11.20;1.77;;;;;;;8.81;100.00;99748.44;10420055;28;20037;-74
2023/10/30 04:14:33;;;;;;;5.93;1.40;;;;;;;8.85;100.00;99755.03;10400657;28;20057;-75
2023/10/30 04:19:33;;;;;;;13.40;2.95;;;;;;;8.82;100.00;99767.34;10420146;28;20044;-76
2023/10/30 04:24:34;;;;;;;10.48;2.50;;;;;;;8.84;100.00;99764.34;10418366;28;20053;-73
2023/10/30 04:29:34;;;;;;;10.20;2.70;;;;;;;8.90;100.00;99774.25;10418263;28;20050;-75
2023/10/30 04:34:35;;;;;;;5.80;1.30;;;;;;;8.91;100.00;99773.16;10418155;28;20053;-77
2023/10/30 04:39:35;;;;;;;11.40;2.47;;;;;;;8.89;100.00;99789.88;10433391;28;20049;-74
2023/10/30 04:44:36;;;;;;;12.88;2.35;;;;;;;8.86;100.00;99782.19;10400973;28;20068;-75
2023/10/30 04:49:38;;;;;;;9.18;1.45;;;;;;;8.79;100.00;99784.38;10419003;28;20052;-74
2023/10/30 04:54:39;;;;;;;7.35;1.95;;;;;;;8.81;100.00;99793.16;10419412;28;20064;-76
2023/10/30 04:59:39;;;;;;;9.75;1.98;;;;;;;8.80;100.00;99779.69;10417860;28;20045;-75
2023/10/30 05:04:39;;;;;;;8.35;2.13;;;;;;;8.76;100.00;99779.41;10418268;28;20053;-74
2023/10/30 05:09:41;;;;;;;7.97;2.22;;;;;;;8.71;100.00;99765.66;10418381;28;20041;-75
2023/10/30 05:14:41;;;;;;;20.58;3.13;;;;;;;8.59;100.00;99752.19;10410046;28;20053;-75
2023/10/30 05:19:42;;;;;;;7.72;1.80;;;;;;;8.61;100.00;99760.97;10417738;28;20050;-74
2023/10/30 05:24:42;;;;;;;7.55;1.42;;;;;;;8.59;100.00;99762.34;10416002;28;20040;-74
2023/10/30 05:29:43;;;;;;;10.75;2.42;;;;;;;8.63;100.00;99756.03;10408629;28;20041;-72
2023/10/30 05:34:44;;;;;;;12.25;1.73;;;;;;;8.63;100.00;99761.53;10415996;28;20045;-76
2023/10/30 05:39:45;;;;;;;13.05;2.58;;;;;;;8.60;100.00;99748.34;10417027;28;20042;-73
2023/10/30 05:44:45;;;;;;;9.32;2.85;;;;;;;8.63;100.00;99753.28;10408499;28;20041;-75
2023/10/30 05:49:46;;;;;;;13.32;1.48;;;;;;;8.67;100.00;99759.88;10414806;28;20168;-74
2023/10/30 05:54:46;;;;;;;12.32;1.85;;;;;;;8.64;100.00;99776.06;10417016;28;20037;-74
2023/10/30 05:59:47;;;;;;;8.52;1.77;;;;;;;8.62;100.00;99773.59;10415913;28;20049;-78
2023/10/30 06:04:47;;;;;;;8.85;1.95;;;;;;;8.57;100.00;99791.97;10416149;28;20050;-67
2023/10/30 06:09:48;;;;;;;7.15;1.20;;;;;;;8.56;100.00;99793.03;10414749;28;20045;-75
2023/10/30 06:14:48;;;;;;;12.68;2.28;;;;;;;8.58;100.00;99799.94;10414351;28;20523;-75
2023/10/30 06:19:49;;;;;;;15.70;2.75;;;;;;;8.63;100.00;99799.94;10416107;28;20037;-74
2023/10/30 06:24:49;;;;;;;7.80;2.15;;;;;;;8.63;100.00;99805.41;10416492;28;20033;-73
2023/10/30 06:29:50;;;;;;;9.57;3.38;;;;;;;8.66;100.00;99813.13;10414071;28;20052;-75
2023/10/30 06:34:50;;;;;;;10.73;2.30;;;;;;;8.66;100.00;99824.09;10413035;28;20056;-73
2023/10/30 06:39:51;;;;;;;5.93;1.33;;;;;;;8.70;100.00;99824.38;10415176;28;20439;-74
2023/10/30 06:44:54;;;;;;;10.90;1.88;;;;;;;8.75;100.00;99834.56;10415634;28;20037;-74
2023/10/30 06:49:55;;;;;;;8.40;2.58;;;;;;;8.75;100.00;99831.84;10415848;28;20038;-74
2023/10/30 06:54:55;;;;;;;7.10;2.03;;;;;;;8.82;100.00;99837.88;10415465;28;20038;-75
2023/10/30 06:59:57;;;;;;;8.80;2.67;;;;;;;8.87;100.00;99835.19;10413796;28;20034;-74
2023/10/30 07:04:57;;;;;;;11.75;2.67;;;;;;;8.94;100.00;99845.91;10414495;28;20034;-75
2023/10/30 07:09:58;;;;;;;12.30;1.70;;;;;;;9.08;100.00;99847.06;10413353;28;21176;-75
2023/10/30 07:14:58;;;;;;;10.10;2.35;;;;;;;9.28;100.00;99857.25;10414550;28;20068;-74
2023/10/30 07:19:59;;;;;;;7.82;1.80;;;;;;;9.43;100.00;99860.03;10415088;28;20157;-74
2023/10/30 07:25:00;;;;;;;9.18;2.45;;;;;;;9.63;100.00;99866.66;10415041;28;20088;-76
2023/10/30 07:30:02;;;;;;;6.78;1.70;;;;;;;9.76;100.00;99874.38;10414042;28;20046;-75
2023/10/30 07:35:03;;;;;;;10.57;1.98;;;;;;;9.84;100.00;99860.09;10413053;28;20056;-76
2023/10/30 07:40:05;;;;;;;8.63;1.70;;;;;;;9.95;100.00;99865.59;10415466;28;20504;-73
2023/10/30 07:45:06;;;;;;;9.77;2.25;;;;;;;10.01;100.00;99878.25;10422239;28;20049;-75
2023/10/30 07:50:06;;;;;;;12.95;1.80;;;;;;;10.15;100.00;99879.34;10421861;28;20033;-74
2023/10/30 07:55:08;;;;;;;8.20;1.70;;;;;;;10.15;100.00;99873.00;10420952;28;20056;-74
2023/10/30 08:00:09;;;;;;;9.73;1.85;;;;;;;10.11;100.00;99875.50;10419566;28;20432;-74
2023/10/30 08:05:09;;;;;;;8.95;2.50;;;;;;;10.09;100.00;99888.72;10420203;28;20038;-73
2023/10/30 08:10:11;;;;;;;9.68;1.73;;;;;;;10.13;100.00;99884.31;10420540;28;20124;-75
2023/10/30 08:15:12;;;;;;;9.93;2.17;;;;;;;10.16;100.00;99888.41;10420803;28;20045;-74
2023/10/30 08:20:13;;;;;;;11.07;2.22;;;;;;;10.14;100.00;99885.94;10420780;28;20105;-74
2023/10/30 08:25:13;;;;;;;10.88;2.55;;;;;;;10.25;100.00;99904.09;10420165;28;20046;-72
2023/10/30 08:30:14;;;;;;;11.77;2.38;;;;;;;10.35;100.00;99914.28;10419084;28;20413;-76
2023/10/30 08:35:14;;;;;;;6.00;2.15;;;;;;;10.43;100.00;99921.16;10418834;28;20041;-74
2023/10/30 08:40:15;;;;;;;8.95;1.48;;;;;;;10.48;100.00;99922.00;10418862;28;20061;-73
2023/10/30 08:45:16;;;;;;;9.10;1.55;;;;;;;10.54;100.00;99917.28;10416954;28;20034;-72
2023/10/30 08:50:16;;;;;;;14.85;3.30;;;;;;;10.65;100.00;99924.44;10417388;28;20060;-71
2023/10/30 08:55:17;;;;;;;9.82;2.78;;;;;;;10.82;100.00;99926.06;10433893;28;20132;-75
2023/10/30 09:00:17;;;;;;;9.93;1.73;;;;;;;10.89;100.00;99937.59;10415266;28;20041;-74
2023/10/30 09:05:18;;;;;;;6.10;1.98;;;;;;;10.98;100.00;99935.94;10416004;28;20044;-74
2023/10/30 09:10:18;;;;;;;9.05;1.90;;;;;;;11.14;100.00;99930.34;10417183;28;20041;-74
2023/10/30 09:15:19;;;;;;;9.73;1.63;;;;;;;11.20;100.00;99926.47;10415421;28;20095;-76
2023/10/30 09:20:20;;;;;;;13.05;2.38;;;;;;;11.25;100.00;99909.94;10398288;28;20038;-74
2023/10/30 09:25:21;;;;;;;13.52;1.95;;;;;;;11.50;100.00;99922.75;10411616;28;20033;-73
2023/10/30 09:30:29;;;;;;;13.48;2.40;;;;;;;11.75;100.00;99919.03;10412424;28;20069;-72
2023/10/30 09:35:31;;;;;;;11.68;1.70;;;;;;;12.01;100.00;99916.97;10414384;28;20048;-73
2023/10/30 09:40:32;;;;;;;4.50;1.33;;;;;;;12.11;100.00;99916.03;10415791;28;20041;-73
2023/10/30 09:45:32;;;;;;;9.18;1.48;;;;;;;12.38;100.00;99911.94;10416211;28;20045;-74
2023/10/30 09:50:33;;;;;;;10.15;2.65;;;;;;;12.62;100.00;99915.59;10387533;28;20029;-73
2023/10/30 09:55:34;;;;;;;13.30;1.50;;;;;;;12.91;100.00;99911.97;10411249;28;20048;-75
2023/10/30 10:00:34;;;;;;;10.68;1.88;;;;;;;13.05;100.00;99901.06;10408850;28;20586;-74
2023/10/30 10:05:35;;;;;;;9.68;1.92;;;;;;;13.00;100.00;99904.69;10414669;28;20065;-74
2023/10/30 10:10:56;;;;;;;10.70;1.80;;;;;;;12.96;100.00;99909.16;10414508;28;20045;-74
2023/10/30 10:15:56;;;;;;;11.68;2.58;;;;;;;12.80;100.00;99894.69;10410977;28;20061;-74
2023/10/30 10:21:01;;;;;;;17.88;3.03;;;;;;;12.51;100.00;99914.88;10415426;28;20537;-74
2023/10/30 10:26:14;;;;;;;8.85;1.65;;;;;;;12.46;100.00;99914.94;10415604;28;20064;-74
2023/10/30 10:31:16;;;;;;;13.60;1.77;;;;;;;12.47;100.00;99921.28;10412802;28;20044;-73
2023/10/30 10:36:17;;;;;;;8.13;2.28;;;;;;;12.49;100.00;99916.28;10415507;28;20490;-74
2023/10/30 10:41:17;;;;;;;7.80;2.08;;;;;;;12.57;100.00;99918.41;10415595;28;20045;-73
2023/10/30 10:46:18;;;;;;;11.43;2.15;;;;;;;12.92;100.00;99905.34;10397540;28;20045;-74
2023/10/30 10:51:25;;;;;;;6.18;1.50;;;;;;;13.49;100.00;99917.34;10415379;28;20041;-73
2023/10/30 10:56:26;;;;;;;6.78;2.53;;;;;;;13.65;100.00;99898.63;10397536;28;20060;-74
2023/10/30 11:01:26;;;;;;;10.25;2.30;;;;;;;13.55;100.00;99900.72;10411696;28;20478;-73
2023/10/30 11:06:31;;;;;;;7.63;1.55;;;;;;;13.55;100.00;99895.19;10415033;28;20052;-73
2023/10/30 11:11:33;;;;;;;19.67;3.05;;;;;;;13.74;100.00;99898.75;10414005;28;20048;-74
2023/10/30 11:16:38;;;;;;;9.45;1.95;;;;;;;13.79;100.00;99895.94;10395103;28;20140;-74
2023/10/30 11:21:39;;;;;;;10.82;1.77;;;;;;;13.68;100.00;99886.13;10387829;28;20051;-72
2023/10/30 11:26:40;;;;;;;11.10;3.17;;;;;;;13.72;100.00;99870.56;10392600;28;20046;-78
2023/10/30 11:31:50;;;;;;;9.52;1.65;;;;;;;13.72;100.00;99863.13;10416687;28;20096;-73
2023/10/30 11:36:51;;;;;;;12.45;1.92;;;;;;;13.60;100.00;99848.94;10422073;28;20041;-74
2023/10/30 11:41:55;;;;;;;10.15;1.60;;;;;;;13.78;100.00;99854.72;10417616;28;20037;-73
2023/10/30 11:46:55;;;;;;;11.55;1.77;;;;;;;13.87;100.00;99851.00;10412732;28;20111;-72
2023/10/30 11:51:57;;;;;;;11.65;1.60;;;;;;;14.75;100.00;99843.91;10421375;28;20084;-74
2023/10/30 11:56:58;;;;;;;9.82;1.83;;;;;;;15.51;100.00;99806.22;10421162;28;20068;-74
2023/10/30 12:02:01;;;;;;;12.48;1.92;;;;;;;15.75;100.00;99813.47;10402187;28;20064;-77
2023/10/30 12:07:01;;;;;;;9.02;2.13;;;;;;;14.96;100.00;99814.66;10420969;28;20076;-74
2023/10/30 12:12:02;;;;;;;6.43;1.35;;;;;;;14.54;100.00;99841.50;10420935;28;20048;-74
2023/10/30 12:17:04;;;;;;;8.38;1.63;;;;;;;14.37;100.00;99841.28;10417960;28;20105;-70
2023/10/30 12:22:04;;;;;;;5.20;1.38;;;;;;;14.18;100.00;99842.19;10417137;28;20048;-73
2023/10/30 12:27:05;;;;;;;8.40;1.42;;;;;;;14.14;100.00;99835.59;10417679;28;20041;-75
2023/10/30 12:32:06;;;;;;;14.27;2.10;;;;;;;14.09;100.00;99846.75;10419366;28;20053;-74
2023/10/30 12:37:19;;;;;;;14.68;2.72;;;;;;;14.08;100.00;99850.66;10415358;28;20045;-74
2023/10/30 12:42:19;;;;;;;7.97;1.75;;;;;;;14.04;100.00;99844.09;10426834;28;20040;-74
2023/10/30 12:47:20;;;;;;;7.20;1.45;;;;;;;13.95;100.00;99841.16;10400400;28;20034;-74
2023/10/30 12:52:21;;;;;;;14.73;3.15;;;;;;;13.89;100.00;99845.97;10418710;28;20049;-74
2023/10/30 12:57:22;;;;;;;10.52;2.20;;;;;;;13.94;100.00;99839.53;10415668;28;20328;-74
2023/10/30 13:02:23;;;;;;;13.95;1.63;;;;;;;13.90;100.00;99838.50;10409104;28;20041;-73
2023/10/30 13:07:23;;;;;;;10.20;1.70;;;;;;;14.09;100.00;99830.13;10397458;28;20033;-75
2023/10/30 13:12:23;;;;;;;6.88;1.65;;;;;;;14.48;100.00;99815.03;10413821;28;20041;-74
2023/10/30 13:17:24;;;;;;;12.13;2.75;;;;;;;14.70;100.00;99794.97;10413514;28;20045;-75
2023/10/30 13:22:24;;;;;;;13.15;2.28;;;;;;;14.77;100.00;99789.03;10416359;28;20038;-72
2023/10/30 13:27:25;;;;;;;11.32;1.85;;;;;;;14.76;100.00;99787.38;10416116;28;20049;-74
2023/10/30 13:32:25;;;;;;;10.52;1.67;;;;;;;14.77;100.00;99783.47;10417344;28;20056;-73
2023/10/30 13:37:26;;;;;;;6.85;1.67;;;;;;;14.90;100.00;99775.16;10417945;28;20048;-74
2023/10/30 13:42:26;;;;;;;9.88;1.35;;;;;;;14.79;100.00;99781.22;10416569;28;20404;-74
2023/10/30 13:47:27;;;;;;;8.55;1.40;;;;;;;14.75;100.00;99788.50;10416525;28;20041;-74
2023/10/30 13:52:27;;;;;;;8.70;1.80;;;;;;;14.61;100.00;99781.00;10416577;28;20040;-73
2023/10/30 13:57:28;;;;;;;10.07;1.65;;;;;;;14.48;100.00;99776.28;10416940;28;20041;-74
2023/10/30 14:02:28;;;;;;;13.73;2.03;;;;;;;14.33;100.00;99780.97;10414890;28;20091;-73
2023/10/30 14:07:28;;;;;;;12.75;2.15;;;;;;;14.28;100.00;99771.94;10416191;28;20466;-73
2023/10/30 14:12:29;;;;;;;9.52;2.53;;;;;;;14.29;100.00;99771.66;10414211;28;20029;-73
2023/10/30 14:17:30;;;;;;;10.43;1.63;;;;;;;14.23;100.00;99772.88;10415943;28;20037;-73
2023/10/30 14:22:30;;;;;;;11.20;1.63;;;;;;;14.05;100.00;99740.53;10397998;28;20049;-74
2023/10/30 14:27:31;;;;;;;11.02;1.73;;;;;;;14.05;100.00;99741.34;10414323;28;20422;-73
2023/10/30 14:32:31;;;;;;;10.70;2.50;;;;;;;14.15;100.00;99773.56;10414760;28;20045;-74
2023/10/30 14:37:32;;;;;;;7.55;2.58;;;;;;;14.10;100.00;99749.59;10415944;28;20570;-74
2023/10/30 14:42:33;;;;;;;8.98;1.83;;;;;;;14.12;100.00;99746.53;10413233;28;20041;-74
2023/10/30 14:47:33;;;;;;;10.25;1.15;;;;;;;13.88;100.00;99741.13;10414299;28;20041;-74
2023/10/30 14:52:33;;;;;;;9.65;1.42;;;;;;;13.70;100.00;99745.59;10411978;28;20059;-74
2023/10/30 14:57:34;;;;;;;8.95;2.00;;;;;;;13.59;100.00;99755.19;10416139;28;20478;-74
2023/10/30 15:02:37;;;;;;;8.52;1.65;;;;;;;13.43;100.00;99752.66;10420363;28;20512;-74
2023/10/30 15:07:38;;;;;;;11.43;1.80;;;;;;;13.28;100.00;99742.63;10422098;28;20108;-73
2023/10/30 15:12:39;;;;;;;18.05;4.35;;;;;;;13.20;100.00;99753.56;10421972;28;20055;-74
2023/10/30 15:17:39;;;;;;;8.00;1.63;;;;;;;13.11;100.00;99751.47;10419211;28;20041;-74
2023/10/30 15:22:40;;;;;;;12.30;1.95;;;;;;;13.03;100.00;99743.03;10420079;28;20224;-74
2023/10/30 15:27:41;;;;;;;6.28;1.42;;;;;;;12.98;100.00;99745.84;10428006;28;20076;-74
2023/10/30 15:32:41;;;;;;;10.05;2.22;;;;;;;12.88;100.00;99736.59;10416027;28;20113;-74
2023/10/30 15:37:42;;;;;;;11.27;1.98;;;;;;;12.78;100.00;99736.75;10421529;28;20045;-74
2023/10/30 15:42:44;;;;;;;6.75;1.40;;;;;;;12.61;100.00;99715.16;10420815;28;20041;-74
2023/10/30 15:47:45;;;;;;;9.63;1.88;;;;;;;12.58;100.00;99737.00;10403075;28;20041;-74
2023/10/30 15:52:46;;;;;;;6.78;1.58;;;;;;;12.43;100.00;99729.75;10421958;28;20048;-74
2023/10/30 15:57:46;;;;;;;8.77;1.98;;;;;;;12.36;100.00;99730.09;10420662;28;20509;-74
2023/10/30 16:02:46;;;;;;;9.98;1.58;;;;;;;12.27;100.00;99724.38;10418455;28;20485;-75
2023/10/30 16:07:47;;;;;;;11.35;2.45;;;;;;;12.12;100.00;99702.50;10419699;28;20038;-74
2023/10/30 16:12:49;;;;;;;12.90;1.80;;;;;;;12.10;100.00;99694.50;10419655;28;21195;-73
2023/10/30 16:17:49;;;;;;;14.40;1.75;;;;;;;12.06;100.00;99695.41;10417635;28;20040;-76
2023/10/30 16:22:50;;;;;;;7.57;1.52;;;;;;;11.82;100.00;99671.34;10419716;28;20052;-74
2023/10/30 16:27:51;;;;;;;10.40;2.92;;;;;;;11.95;100.00;99686.41;10418743;28;20063;-74
2023/10/30 16:32:53;;;;;;;6.78;2.10;;;;;;;11.90;100.00;99692.78;10397834;28;20037;-74
2023/10/30 16:37:53;;;;;;;7.82;2.33;;;;;;;11.85;100.00;99681.78;10392459;28;20053;-75
2023/10/30 16:42:54;;;;;;;8.07;3.15;;;;;;;11.50;100.00;99631.41;10395171;28;20513;-75
2023/10/30 16:47:54;;;;;;;7.15;2.60;;;;;;;11.71;100.00;99681.66;10393827;28;20041;-75
2023/10/30 16:52:55;;;;;;;8.98;2.97;;;;;;;11.63;100.00;99674.00;10392850;28;20046;-75
2023/10/30 16:57:55;;;;;;;13.77;2.13;;;;;;;11.65;100.00;99679.25;10394734;28;20516;-73
2023/10/30 17:02:56;;;;;;;9.27;2.85;;;;;;;11.62;100.00;99677.91;10391177;28;20045;-74
2023/10/30 17:07:56;;;;;;;15.85;4.38;;;;;;;11.59;100.00;99675.69;10392928;28;20041;-75
2023/10/30 17:12:57;;;;;;;8.75;2.00;;;;;;;11.56;100.00;99667.22;10392845;28;20045;-74
2023/10/30 17:17:57;;;;;;;12.63;3.70;;;;;;;11.55;100.00;99677.41;10391226;28;20049;-75
2023/10/30 17:22:58;;;;;;;9.25;2.92;;;;;;;11.54;100.00;99670.25;10393424;28;20053;-75
2023/10/30 17:27:58;;;;;;;11.43;2.72;;;;;;;11.52;100.00;99672.47;10406315;28;20056;-74
2023/10/30 17:32:58;;;;;;;12.05;3.47;;;;;;;11.49;100.00;99668.38;10417595;28;20136;-75
2023/10/30 17:37:59;;;;;;;11.15;2.97;;;;;;;11.48;100.00;99669.47;10414958;28;20041;-74
2023/10/30 17:42:59;;;;;;;12.95;3.85;;;;;;;11.45;100.00;99681.09;10415967;28;20088;-75
2023/10/30 17:48:00;;;;;;;8.88;2.75;;;;;;;11.43;100.00;99666.78;10416283;28;20041;-75
2023/10/30 17:53:00;;;;;;;14.60;2.75;;;;;;;11.42;100.00;99672.56;10412675;28;20041;-74
2023/10/30 17:58:01;;;;;;;13.05;3.30;;;;;;;11.39;100.00;99657.44;10422070;28;20079;-75
2023/10/30 18:03:01;;;;;;;9.77;2.90;;;;;;;11.11;100.00;99624.06;10419226;28;20037;-74
2023/10/30 18:08:02;;;;;;;17.15;4.35;;;;;;;11.32;100.00;99656.94;10415520;28;20049;-72
2023/10/30 18:13:02;;;;;;;9.43;3.97;;;;;;;11.27;100.00;99660.56;10415571;28;20049;-74
2023/10/30 18:18:03;;;;;;;16.83;4.03;;;;;;;11.27;100.00;99648.75;10408840;28;20042;-74
2023/10/30 18:23:04;;;;;;;11.65;4.68;;;;;;;11.24;100.00;99638.28;10414048;28;20108;-75
2023/10/30 18:28:07;;;;;;;17.10;4.55;;;;;;;11.13;100.00;99620.22;10424032;28;20037;-75
2023/10/30 18:33:07;;;;;;;29.95;6.80;;;;;;;10.97;100.00;99598.28;10443437;28;20038;-74
2023/10/30 18:38:08;;;;;;;12.15;4.45;;;;;;;11.25;100.00;99637.19;10426078;28;20045;-76
2023/10/30 18:43:08;;;;;;;10.63;4.60;;;;;;;11.11;100.00;99612.22;10422913;28;20397;-75
2023/10/30 18:48:09;;;;;;;18.38;4.60;;;;;;;11.25;100.00;99623.41;10414866;28;20495;-75
2023/10/30 18:53:09;;;;;;;20.17;5.85;;;;;;;11.26;100.00;99619.53;10411487;28;20104;-76
2023/10/30 18:58:10;;;;;;;12.07;6.25;;;;;;;11.25;100.00;99607.69;10415932;28;20084;-76
2023/10/30 19:03:10;;;;;;;15.38;6.35;;;;;;;11.24;100.00;99594.19;10431994;28;20042;-71
2023/10/30 19:08:11;;;;;;;14.55;7.75;;;;;;;11.24;100.00;99596.94;10424229;28;22377;-76
2023/10/30 19:13:11;;;;;;;17.60;10.32;;;;;;;11.19;100.00;99583.25;10439177;28;20037;-77
2023/10/30 19:18:12;;;;;;;19.38;9.82;;;;;;;11.22;100.00;99588.16;10418557;28;20034;-77
2023/10/30 19:23:13;;;;;;;18.80;10.95;;;;;;;11.20;100.00;99584.88;10425262;28;20037;-76
2023/10/30 19:28:13;;;;;;;19.95;10.30;;;;;;;11.20;100.00;99590.38;10421294;28;20456;-77
2023/10/30 19:33:14;;;;;;;18.40;10.90;;;;;;;11.21;100.00;99589.28;10419741;28;20426;-76
2023/10/30 19:38:15;;;;;;;13.75;10.80;;;;;;;11.18;100.00;99585.16;10408645;28;20045;-76
2023/10/30 19:43:15;;;;;;;15.48;9.65;;;;;;;11.13;100.00;99571.44;10428618;28;20034;-77
2023/10/30 19:48:16;;;;;;;23.23;12.20;;;;;;;11.13;100.00;99573.38;10419435;28;20099;-77
2023/10/30 19:53:16;;;;;;;21.80;11.88;;;;;;;11.18;100.00;99568.63;10430607;28;20120;-75
2023/10/30 19:58:17;;;;;;;25.05;12.57;;;;;;;11.11;100.00;99549.69;10427792;28;20037;-75
2023/10/30 20:03:19;;;;;;;21.77;11.32;;;;;;;11.20;100.00;99555.38;10390331;28;20043;-74
2023/10/30 20:08:20;;;;;;;24.88;12.23;;;;;;;11.22;100.00;99553.16;10406196;28;20041;-75
2023/10/30 20:13:22;;;;;;;26.48;12.43;;;;;;;11.21;100.00;99542.44;10392505;28;20108;-75
2023/10/30 20:18:22;;;;;;;26.33;13.50;;;;;;;11.15;100.00;99524.34;10413880;28;20061;-75
2023/10/30 20:23:23;;;;;;;22.05;11.75;;;;;;;11.21;100.00;99534.19;10391905;28;20501;-75
2023/10/30 20:28:23;;;;;;;27.42;12.30;;;;;;;11.21;100.00;99534.19;10435158;28;20513;-74
2023/10/30 20:33:24;;;;;;;24.25;10.65;;;;;;;11.18;100.00;99526.50;10388716;28;20076;-74
2023/10/30 20:38:24;;;;;;;23.67;10.93;;;;;;;11.10;100.00;99501.25;10405802;28;20061;-74
2023/10/30 20:43:26;;;;;;;18.90;10.30;;;;;;;11.15;100.00;99503.09;10407912;28;20048;-74
2023/10/30 20:48:26;;;;;;;20.27;9.65;;;;;;;11.11;100.00;99489.09;10428622;28;20120;-74
2023/10/30 20:53:27;;;;;;;24.20;11.63;;;;;;;11.12;100.00;99498.19;10410429;28;20037;-74
2023/10/30 20:58:27;;;;;;;22.65;11.15;;;;;;;11.02;100.00;99471.56;10411805;28;20037;-73
2023/10/30 21:03:28;;;;;;;28.13;13.90;;;;;;;11.06;100.00;99471.81;10384589;28;20438;-73
2023/10/30 21:08:28;;;;;;;29.17;15.23;;;;;;;11.08;100.00;99473.16;10390821;28;20099;-74
2023/10/30 21:13:32;;;;;;;33.65;16.20;;;;;;;11.01;100.00;99456.16;10392038;28;20045;-74
2023/10/30 21:18:32;;;;;;;28.80;15.73;;;;;;;10.88;100.00;99437.59;10343718;28;20038;-73
2023/10/30 21:23:33;;;;;;;33.15;16.17;;;;;;;11.05;100.00;99459.16;10391180;28;20076;-72
2023/10/30 21:28:33;;;;;;;27.13;14.93;;;;;;;11.05;100.00;99459.16;10393076;28;20080;-72
2023/10/30 21:33:34;;;;;;;33.05;15.98;;;;;;;11.05;100.00;99448.13;10391053;28;20581;-72
2023/10/30 21:38:35;;;;;;;31.80;13.27;;;;;;;11.01;100.00;99447.88;10392457;28;20237;-71
2023/10/30 21:43:35;;;;;;;27.58;12.05;;;;;;;10.99;100.00;99439.09;10399271;28;20539;-71
2023/10/30 21:48:35;;;;;;;23.83;10.02;;;;;;;10.97;100.00;99435.00;10425402;28;20407;-71
2023/10/30 21:53:36;;;;;;;16.85;9.05;;;;;;;10.94;100.00;99430.91;10429167;28;20056;-70
2023/10/30 21:58:37;;;;;;;19.58;8.88;;;;;;;10.93;100.00;99429.25;10414215;28;20076;-71
2023/10/30 22:03:37;;;;;;;18.02;7.38;;;;;;;10.85;100.00;99416.13;10430712;28;20533;-71
2023/10/30 22:08:38;;;;;;;24.95;7.63;;;;;;;10.87;100.00;99413.91;10422235;28;20050;-71
2023/10/30 22:13:38;;;;;;;15.15;6.60;;;;;;;10.84;100.00;99422.75;10402200;28;20049;-71
2023/10/30 22:18:39;;;;;;;19.77;6.93;;;;;;;10.82;100.00;99416.72;10409934;28;20037;-71
2023/10/30 22:23:39;;;;;;;15.02;6.43;;;;;;;10.79;100.00;99420.03;10403567;28;20510;-72
2023/10/30 22:28:40;;;;;;;14.52;6.57;;;;;;;10.74;100.00;99395.34;10404242;28;20509;-72
2023/10/30 22:33:40;;;;;;;12.10;4.93;;;;;;;10.64;100.00;99377.81;10413090;28;20033;-72
2023/10/30 22:38:41;;;;;;;16.02;5.85;;;;;;;10.69;100.00;99376.94;10409483;28;20048;-72
2023/10/30 22:43:42;;;;;;;10.45;4.43;;;;;;;10.67;100.00;99370.91;10404374;28;20053;-71
2023/10/30 22:48:42;;;;;;;13.48;3.42;;;;;;;10.44;100.00;99318.31;10405784;28;20039;-71
2023/10/30 22:53:43;;;;;;;8.50;4.03;;;;;;;10.56;100.00;99330.84;10410469;28;20057;-68
2023/10/30 22:58:43;;;;;;;12.88;4.13;;;;;;;10.44;100.00;99320.25;10429439;28;20044;-71